Accueil
METAR-TAF:

METAR-TAF

Aéroports :

Diest, Belgique

Base aérienne de Schaffen

latitude: 51-00N, longitude: 005-04E, altitude: 30 m

Observation

Le bulletin a été fait il y a 26 minutes, à 08:25 UTC
Vent 6 kt de ouest
Température 17°C
Humidité 68%
Pression 1017 hPa
Visibilité 10 km ou plus
Nuages fragmentés à une hauteur de 24000 ft

METAR: EBDT 230825Z 27006KT 9999 BKN240 17/11 Q1017 BLU BLU

Heure: 10:51 (08:51 UTC)

Prévision

Le bulletin a été fait il y a 3 heures et 10 minutes, à 05:41 UTC
Prévision valable du 23 à 07 UTC au 23 à 16 UTC
Vent 7 kt de ouest
Visibilité 10 km ou plus
Quelques nuages à une hauteur de 24000 ft
Evoluant progressivement
du 23 à 10 UTC au 23 à 12 UTC
Vent 10 kt de ouest/nord-ouest

TAF: EBDT 230541Z 2307/2316 27007KT 9999 FEW240 BECMG 2310/2312 30010KT

Observations et prévisions météorologiques de plus de 4000 aéroports (messages METAR et TAF).

Les stations disponibles sont représentées par des disques jaunes et rouges sur la carte.

Passer la souris dessus pour voir le nom de la station.

Cliquer dessus pour voir les observations et prévisions météorologiques.

Pour changer de carte: cliquez sur les boutons verts avec une croix noire pour zoomer, sur le bouton vert avec un tiret pour effectuer un zoom arrière, ou sur les flèches vertes pour les cartes adjacentes.


METAR-TAF: